Silia — WDG2034 — position and weather

sailwx.info

Track history (hours):
 
Tides and Currents Weather Stations Pressure Air Temp Water Temp Dewpoint Dewpoint Depression Visibility Wind Speed Wind Dir Waves Ship Positions

Silia

Owner: greger pacific marine, napa, CA. More information available from US FCC via Universal Licensing System and Coast Guard Vessel Documentation Center.

Last reported at 2014-Oct-09 17:05 UTC. Time now 2014-Oct-22 09:42 UTC.
Position N 38°02' W 122°07'.
Warning: this ship's position is 12 days out of date.

Length 17 m; draft 3 m.

Type: Tug. MMSI: 367511460.

Date/timePositionNaut miles runAvg speedWind from/ knotsBaromVisibWave heightAir tempDewpointWater temp
2014-Oct-09 17:05N 38°02' W 122°07'3 4.7
2014-Oct-09 16:32N 38°03' W 122°10'2 2.3
2014-Oct-09 15:33N 38°03' W 122°13'0 0.0
2014-Oct-09 14:33N 38°03' W 122°13'0 0.0
2014-Oct-09 13:33N 38°03' W 122°13'0 0.0
2014-Oct-09 12:33N 38°03' W 122°13'0 0.0
2014-Oct-09 11:33N 38°03' W 122°13'0 0.0
2014-Oct-09 10:32N 38°03' W 122°13'0 0.0
2014-Oct-09 08:03N 38°03' W 122°13'510.0
2014-Oct-09 07:31N 38°03' W 122°20'9 9.4
2014-Oct-09 06:33N 37°55' W 122°25'8 8.3
2014-Oct-09 05:34N 37°47' W 122°22'1 0.6
2014-Oct-09 04:33N 37°47' W 122°23'7 6.9
2014-Oct-09 03:33N 37°54' W 122°25'6 6.2
2014-Oct-09 02:33N 38°00' W 122°24'8 8.0
2014-Oct-09 01:33N 38°04' W 122°15'3 2.9
2014-Oct-09 00:33N 38°03' W 122°12'12 0.4
2014-Oct-07 20:33N 38°03' W 121°57'9 8.5
2014-Oct-07 19:33N 38°02' W 122°08'1110.3
2014-Oct-07 18:30N 38°02' W 122°21'8 8.6
2014-Oct-07 17:33N 37°55' W 122°25'7 7.4
2014-Oct-07 16:33N 37°49' W 122°19'1 0.7
2014-Oct-07 15:33N 37°49' W 122°18'0 0.0
2014-Oct-07 12:33N 37°49' W 122°18'0 0.0
2014-Oct-07 11:33N 37°49' W 122°18'0 0.0
2014-Oct-07 10:33N 37°49' W 122°18'0 0.0
2014-Oct-07 09:33N 37°49' W 122°18'0 0.0
2014-Oct-07 08:33N 37°49' W 122°18'0 0.0
2014-Oct-07 07:33N 37°49' W 122°18'0 0.0
2014-Oct-07 06:33N 37°49' W 122°18'0 0.0
2014-Oct-07 05:33N 37°49' W 122°18'0 0.0
2014-Oct-07 04:34N 37°49' W 122°18'0 0.0
2014-Oct-07 03:33N 37°49' W 122°18'0 0.0
2014-Oct-07 02:33N 37°49' W 122°18'0 0.0
2014-Oct-07 01:33N 37°49' W 122°18'0 0.0
2014-Oct-07 00:33N 37°49' W 122°18'0 0.0
2014-Oct-06 23:33N 37°49' W 122°18'0 0.0
2014-Oct-06 22:33N 37°49' W 122°18'6 5.7
2014-Oct-06 21:33N 37°49' W 122°26'2 1.8
2014-Oct-06 20:33N 37°48' W 122°28'2 2.3
2014-Oct-06 19:33N 37°50' W 122°25'0 0.0
2014-Oct-06 18:33N 37°50' W 122°25'0 0.4
2014-Oct-06 17:33N 37°49' W 122°25'0 0.0
2014-Oct-06 16:33N 37°49' W 122°25'1 0.5
2014-Oct-06 15:33N 37°49' W 122°25'5 4.9
2014-Oct-06 14:33N 37°49' W 122°19'0 0.1
2014-Oct-06 13:33N 37°49' W 122°19'4 4.0
2014-Oct-06 12:34N 37°47' W 122°15'  
2014-Oct-03 20:33N 37°47' W 122°15'4 4.2
2014-Oct-03 19:33N 37°49' W 122°19'0 0.3
2014-Oct-03 18:33N 37°49' W 122°19'0 0.0
2014-Oct-03 17:33N 37°49' W 122°19'0 0.0
2014-Oct-03 16:33N 37°49' W 122°19'4 4.0
2014-Oct-03 15:33N 37°49' W 122°24'9 8.8
2014-Oct-03 14:33N 37°46' W 122°35'49 8.2
2014-Oct-03 08:33N 36°57' W 122°27'8 8.1
2014-Oct-03 07:33N 36°49' W 122°24'8 7.9
2014-Oct-03 06:33N 36°42' W 122°20'8 7.6
2014-Oct-03 05:33N 36°35' W 122°16'7 7.4
2014-Oct-03 04:33N 36°29' W 122°12'8 7.9
2014-Oct-03 03:33N 36°21' W 122°08'8 8.1
2014-Oct-03 02:33N 36°15' W 122°03'8 8.2
2014-Oct-03 01:33N 36°08' W 121°57'8 8.2
2014-Oct-03 00:33N 36°01' W 121°51'8 8.0
2014-Oct-02 23:33N 35°55' W 121°44'9 8.1
2014-Oct-02 22:29N 35°49' W 121°37'110 7.2
2014-Oct-02 07:03N 34°20' W 120°17'4 7.1
2014-Oct-02 06:32N 34°19' W 120°13'7 6.8
2014-Oct-02 05:33N 34°17' W 120°05'7 6.5
2014-Oct-02 04:29N 34°15' W 119°57'7 6.2
2014-Oct-02 03:24N 34°14' W 119°49'8 7.6
2014-Oct-02 02:18N 34°11' W 119°39'6 8.5
2014-Oct-02 01:33N 34°09' W 119°32'8 7.9
2014-Oct-02 00:33N 34°07' W 119°23'9 8.2
2014-Oct-01 23:29N 34°04' W 119°13'70 5.0
2014-Oct-01 09:33N 33°37' W 117°55'0 0.0
2014-Oct-01 03:09N 33°37' W 117°55'0 0.0
2014-Oct-01 02:25N 33°37' W 117°55'0 0.0
2014-Sep-30 23:10N 33°37' W 117°55'  
Track history (hours):
 
Tides and Currents Weather Stations Pressure Air Temp Water Temp Dewpoint Dewpoint Depression Visibility Wind Speed Wind Dir Waves Ship Positions

Silia

Owner: greger pacific marine, napa, CA. More information available from US FCC via Universal Licensing System and Coast Guard Vessel Documentation Center.

Last reported at 2014-Oct-09 17:05 UTC. Time now 2014-Oct-22 09:42 UTC.
Position N 38°02' W 122°07'.
Warning: this ship's position is 12 days out of date.

Length 17 m; draft 3 m.

Type: Tug. MMSI: 367511460.

Date/timePositionNaut miles runAvg speedWind from/ knotsBaromVisibWave heightAir tempDewpointWater temp
2014-Oct-09 17:05N 38°02' W 122°07'3 4.7
2014-Oct-09 16:32N 38°03' W 122°10'2 2.3
2014-Oct-09 15:33N 38°03' W 122°13'0 0.0
2014-Oct-09 14:33N 38°03' W 122°13'0 0.0
2014-Oct-09 13:33N 38°03' W 122°13'0 0.0
2014-Oct-09 12:33N 38°03' W 122°13'0 0.0
2014-Oct-09 11:33N 38°03' W 122°13'0 0.0
2014-Oct-09 10:32N 38°03' W 122°13'0 0.0
2014-Oct-09 08:03N 38°03' W 122°13'510.0
2014-Oct-09 07:31N 38°03' W 122°20'9 9.4
2014-Oct-09 06:33N 37°55' W 122°25'8 8.3
2014-Oct-09 05:34N 37°47' W 122°22'1 0.6
2014-Oct-09 04:33N 37°47' W 122°23'7 6.9
2014-Oct-09 03:33N 37°54' W 122°25'6 6.2
2014-Oct-09 02:33N 38°00' W 122°24'8 8.0
2014-Oct-09 01:33N 38°04' W 122°15'3 2.9
2014-Oct-09 00:33N 38°03' W 122°12'12 0.4
2014-Oct-07 20:33N 38°03' W 121°57'9 8.5
2014-Oct-07 19:33N 38°02' W 122°08'1110.3
2014-Oct-07 18:30N 38°02' W 122°21'8 8.6
2014-Oct-07 17:33N 37°55' W 122°25'7 7.4
2014-Oct-07 16:33N 37°49' W 122°19'1 0.7
2014-Oct-07 15:33N 37°49' W 122°18'0 0.0
2014-Oct-07 12:33N 37°49' W 122°18'0 0.0
2014-Oct-07 11:33N 37°49' W 122°18'0 0.0
2014-Oct-07 10:33N 37°49' W 122°18'0 0.0
2014-Oct-07 09:33N 37°49' W 122°18'0 0.0
2014-Oct-07 08:33N 37°49' W 122°18'0 0.0
2014-Oct-07 07:33N 37°49' W 122°18'0 0.0
2014-Oct-07 06:33N 37°49' W 122°18'0 0.0
2014-Oct-07 05:33N 37°49' W 122°18'0 0.0
2014-Oct-07 04:34N 37°49' W 122°18'0 0.0
2014-Oct-07 03:33N 37°49' W 122°18'0 0.0
2014-Oct-07 02:33N 37°49' W 122°18'0 0.0
2014-Oct-07 01:33N 37°49' W 122°18'0 0.0
2014-Oct-07 00:33N 37°49' W 122°18'0 0.0
2014-Oct-06 23:33N 37°49' W 122°18'0 0.0
2014-Oct-06 22:33N 37°49' W 122°18'6 5.7
2014-Oct-06 21:33N 37°49' W 122°26'2 1.8
2014-Oct-06 20:33N 37°48' W 122°28'2 2.3
2014-Oct-06 19:33N 37°50' W 122°25'0 0.0
2014-Oct-06 18:33N 37°50' W 122°25'0 0.4
2014-Oct-06 17:33N 37°49' W 122°25'0 0.0
2014-Oct-06 16:33N 37°49' W 122°25'1 0.5
2014-Oct-06 15:33N 37°49' W 122°25'5 4.9
2014-Oct-06 14:33N 37°49' W 122°19'0 0.1
2014-Oct-06 13:33N 37°49' W 122°19'4 4.0
2014-Oct-06 12:34N 37°47' W 122°15'  
2014-Oct-03 20:33N 37°47' W 122°15'4 4.2
2014-Oct-03 19:33N 37°49' W 122°19'0 0.3
2014-Oct-03 18:33N 37°49' W 122°19'0 0.0
2014-Oct-03 17:33N 37°49' W 122°19'0 0.0
2014-Oct-03 16:33N 37°49' W 122°19'4 4.0
2014-Oct-03 15:33N 37°49' W 122°24'9 8.8
2014-Oct-03 14:33N 37°46' W 122°35'49 8.2
2014-Oct-03 08:33N 36°57' W 122°27'8 8.1
2014-Oct-03 07:33N 36°49' W 122°24'8 7.9
2014-Oct-03 06:33N 36°42' W 122°20'8 7.6
2014-Oct-03 05:33N 36°35' W 122°16'7 7.4
2014-Oct-03 04:33N 36°29' W 122°12'8 7.9
2014-Oct-03 03:33N 36°21' W 122°08'8 8.1
2014-Oct-03 02:33N 36°15' W 122°03'8 8.2
2014-Oct-03 01:33N 36°08' W 121°57'8 8.2
2014-Oct-03 00:33N 36°01' W 121°51'8 8.0
2014-Oct-02 23:33N 35°55' W 121°44'9 8.1
2014-Oct-02 22:29N 35°49' W 121°37'110 7.2
2014-Oct-02 07:03N 34°20' W 120°17'4 7.1
2014-Oct-02 06:32N 34°19' W 120°13'7 6.8
2014-Oct-02 05:33N 34°17' W 120°05'7 6.5
2014-Oct-02 04:29N 34°15' W 119°57'7 6.2
2014-Oct-02 03:24N 34°14' W 119°49'8 7.6
2014-Oct-02 02:18N 34°11' W 119°39'6 8.5
2014-Oct-02 01:33N 34°09' W 119°32'8 7.9
2014-Oct-02 00:33N 34°07' W 119°23'9 8.2
2014-Oct-01 23:29N 34°04' W 119°13'70 5.0
2014-Oct-01 09:33N 33°37' W 117°55'0 0.0
2014-Oct-01 03:09N 33°37' W 117°55'0 0.0
2014-Oct-01 02:25N 33°37' W 117°55'0 0.0
2014-Sep-30 23:10N 33°37' W 117°55'  

Dump ship's entire track history